createdAt,value
2022-08-03T00:01:49.480Z,19.90
2022-08-03T00:04:16.759Z,19.90
2022-08-03T00:06:43.770Z,19.90
2022-08-03T00:09:10.851Z,19.90
2022-08-03T00:11:38.121Z,19.90
2022-08-03T00:14:06.077Z,19.90
2022-08-03T00:16:33.155Z,19.90
2022-08-03T00:19:01.118Z,19.80
2022-08-03T00:21:28.473Z,19.80
2022-08-03T00:23:55.180Z,19.80
2022-08-03T00:26:22.155Z,19.80
2022-08-03T00:28:49.626Z,19.70
2022-08-03T00:31:16.580Z,19.70
2022-08-03T00:33:58.839Z,19.60
2022-08-03T00:36:28.383Z,19.60
2022-08-03T00:38:56.351Z,19.50
2022-08-03T00:41:23.097Z,19.50
2022-08-03T00:43:49.702Z,19.60
2022-08-03T00:46:20.848Z,19.60
2022-08-03T00:48:53.524Z,19.50
2022-08-03T00:51:21.388Z,19.50
2022-08-03T00:53:48.281Z,19.40
2022-08-03T00:56:16.757Z,19.40
2022-08-03T00:58:47.054Z,19.30
2022-08-03T01:01:14.486Z,19.30
2022-08-03T01:03:41.480Z,19.30
2022-08-03T01:06:39.436Z,19.20
2022-08-03T01:09:18.376Z,19.30
2022-08-03T01:12:01.205Z,19.30
2022-08-03T01:14:38.248Z,19.30
2022-08-03T01:17:18.219Z,19.30
2022-08-03T01:19:58.262Z,19.30
2022-08-03T01:22:52.340Z,19.30
2022-08-03T01:25:56.494Z,19.30
2022-08-03T01:29:00.997Z,19.20
2022-08-03T01:32:53.305Z,19.20
2022-08-03T01:34:41.212Z,19.20
2022-08-03T01:37:10.771Z,19.10
2022-08-03T01:39:39.770Z,19.10
2022-08-03T01:42:08.151Z,19.00
2022-08-03T01:44:41.146Z,18.90
2022-08-03T01:47:08.502Z,18.90
2022-08-03T01:49:43.429Z,18.90
2022-08-03T01:52:11.845Z,18.90
2022-08-03T01:54:43.972Z,18.90
2022-08-03T01:57:11.628Z,18.90
2022-08-03T01:59:40.193Z,19.00
2022-08-03T02:02:28.311Z,19.00
2022-08-03T02:04:57.776Z,18.90
2022-08-03T02:07:27.775Z,18.90
2022-08-03T02:09:57.592Z,18.90
2022-08-03T02:12:26.595Z,18.80
2022-08-03T02:14:54.662Z,18.80
2022-08-03T02:17:39.694Z,18.80
2022-08-03T02:20:09.034Z,18.80
2022-08-03T02:22:40.254Z,18.90
2022-08-03T02:25:09.177Z,18.90
2022-08-03T02:27:43.191Z,18.90
2022-08-03T02:30:12.074Z,18.90
2022-08-03T02:32:42.414Z,18.90
2022-08-03T02:35:15.288Z,18.90
2022-08-03T02:37:49.769Z,18.90
2022-08-03T02:40:19.113Z,18.80
2022-08-03T02:42:49.339Z,18.80
2022-08-03T02:45:18.227Z,18.70
2022-08-03T02:47:53.828Z,18.70
2022-08-03T02:50:23.061Z,18.60
2022-08-03T02:52:51.040Z,18.60
2022-08-03T02:55:20.482Z,18.60
2022-08-03T02:57:48.116Z,18.50
2022-08-03T03:00:27.716Z,18.50
2022-08-03T03:02:58.387Z,18.50
2022-08-03T03:05:54.837Z,18.50
2022-08-03T03:08:20.947Z,18.50
2022-08-03T03:10:55.648Z,18.50
2022-08-03T03:13:23.401Z,18.40
2022-08-03T03:15:51.962Z,18.40
2022-08-03T03:18:22.582Z,18.50
2022-08-03T03:20:51.550Z,18.50
2022-08-03T03:23:19.325Z,18.50
2022-08-03T03:25:46.541Z,18.50
2022-08-03T03:28:13.512Z,18.40
2022-08-03T03:30:40.211Z,18.40
2022-08-03T03:33:07.509Z,18.40
2022-08-03T03:35:37.155Z,18.40
2022-08-03T03:38:06.744Z,18.40
2022-08-03T03:40:35.655Z,18.40
2022-08-03T03:43:03.264Z,18.40
2022-08-03T03:45:31.454Z,18.40
2022-08-03T03:48:00.488Z,18.40
2022-08-03T03:50:28.285Z,18.40
2022-08-03T03:52:55.033Z,18.40
2022-08-03T03:55:21.768Z,18.40
2022-08-03T03:57:48.488Z,18.40
2022-08-03T04:00:17.320Z,18.40
2022-08-03T04:02:45.132Z,18.30
2022-08-03T04:05:31.586Z,18.30
2022-08-03T04:08:22.396Z,18.30
2022-08-03T04:11:10.253Z,18.30
2022-08-03T04:13:38.645Z,18.30
2022-08-03T04:16:07.724Z,18.30
2022-08-03T04:18:37.601Z,18.30
2022-08-03T04:21:08.500Z,18.30
2022-08-03T04:23:40.841Z,18.20
2022-08-03T04:26:12.189Z,18.20
2022-08-03T04:28:41.578Z,18.20
2022-08-03T04:31:08.375Z,18.20
2022-08-03T04:33:38.538Z,18.20
2022-08-03T04:36:08.703Z,18.30
2022-08-03T04:39:13.442Z,18.20
2022-08-03T04:42:08.242Z,18.30
2022-08-03T04:44:29.741Z,18.30
2022-08-03T04:46:57.905Z,18.40
2022-08-03T04:49:25.266Z,18.40
2022-08-03T04:51:53.207Z,18.40
2022-08-03T04:54:19.959Z,18.50
2022-08-03T04:56:46.600Z,18.50
2022-08-03T04:59:13.419Z,18.50
2022-08-03T05:01:42.049Z,18.50
2022-08-03T05:04:09.258Z,18.60
2022-08-03T05:06:36.307Z,18.60
2022-08-03T05:09:08.485Z,18.60
2022-08-03T05:11:35.454Z,18.70
2022-08-03T05:14:02.194Z,18.80
2022-08-03T05:16:29.239Z,18.80
2022-08-03T05:18:55.988Z,18.90
2022-08-03T05:21:22.923Z,18.90
2022-08-03T05:23:49.978Z,19.00
2022-08-03T05:26:17.018Z,19.10
2022-08-03T05:28:51.278Z,19.10
2022-08-03T05:31:18.999Z,19.30
2022-08-03T05:33:46.046Z,19.30
2022-08-03T05:36:13.095Z,19.40
2022-08-03T05:38:40.041Z,19.40
2022-08-03T05:41:21.155Z,19.50
2022-08-03T05:43:54.118Z,19.60
2022-08-03T05:46:25.042Z,19.60
2022-08-03T05:48:52.379Z,19.70
2022-08-03T05:54:11.472Z,19.80
2022-08-03T05:56:41.078Z,19.90
2022-08-03T05:59:35.790Z,20.00
2022-08-03T06:04:45.848Z,20.30
2022-08-03T06:07:13.013Z,20.30
2022-08-03T06:10:36.527Z,20.40
2022-08-03T06:12:29.221Z,20.40
2022-08-03T06:17:51.361Z,20.70
2022-08-03T06:20:20.490Z,20.80
2022-08-03T06:22:51.337Z,20.80
2022-08-03T06:25:27.766Z,20.80
2022-08-03T06:27:55.331Z,21.00
2022-08-03T06:30:22.363Z,21.10
2022-08-03T06:32:51.758Z,21.20
2022-08-03T06:35:19.826Z,21.10
2022-08-03T06:37:49.042Z,21.10
2022-08-03T06:40:24.593Z,21.10
2022-08-03T06:42:51.643Z,21.20
2022-08-03T06:45:18.784Z,21.20
2022-08-03T06:47:45.945Z,21.30
2022-08-03T06:50:16.754Z,21.40
2022-08-03T06:52:44.427Z,21.50
2022-08-03T06:55:11.450Z,21.50
2022-08-03T07:03:19.809Z,21.90
2022-08-03T07:05:50.810Z,22.10
2022-08-03T07:08:18.374Z,22.10
2022-08-03T07:11:00.762Z,22.20
2022-08-03T07:13:27.481Z,22.30
2022-08-03T07:15:56.064Z,22.50
2022-08-03T07:18:29.878Z,22.50
2022-08-03T07:20:57.838Z,22.60
2022-08-03T07:23:25.559Z,22.90
2022-08-03T07:25:52.431Z,23.10
2022-08-03T07:28:20.103Z,23.20
2022-08-03T07:30:47.093Z,23.30
2022-08-03T07:33:14.194Z,23.30
2022-08-03T07:35:40.835Z,23.40
2022-08-03T07:38:07.580Z,23.40
2022-08-03T07:40:34.685Z,23.50
2022-08-03T07:43:03.187Z,23.50
2022-08-03T07:45:31.687Z,23.70
2022-08-03T07:47:58.482Z,24.10
2022-08-03T07:50:25.493Z,24.20
2022-08-03T07:52:53.960Z,24.10
2022-08-03T07:55:22.755Z,24.30
2022-08-03T07:58:09.960Z,24.30
2022-08-03T08:00:36.976Z,24.40
2022-08-03T08:03:04.823Z,24.70
2022-08-03T08:05:31.877Z,24.70
2022-08-03T08:07:58.579Z,24.70
2022-08-03T08:10:25.588Z,24.80
2022-08-03T08:12:52.866Z,24.90
2022-08-03T08:15:19.619Z,24.90
2022-08-03T08:17:49.954Z,25.00
2022-08-03T08:20:27.663Z,25.20
2022-08-03T08:23:01.184Z,25.30
2022-08-03T08:25:29.171Z,25.30
2022-08-03T08:28:29.587Z,25.50
2022-08-03T08:30:42.556Z,25.80
2022-08-03T08:33:15.697Z,25.70
2022-08-03T08:35:51.206Z,25.80
2022-08-03T08:38:17.941Z,26.10
2022-08-03T08:40:44.843Z,26.30
2022-08-03T08:43:11.533Z,26.40
2022-08-03T08:45:38.461Z,26.50
2022-08-03T08:48:08.321Z,26.60
2022-08-03T08:50:38.736Z,26.60
2022-08-03T08:53:11.435Z,26.80
2022-08-03T08:55:58.476Z,27.00
2022-08-03T08:58:30.261Z,27.30
2022-08-03T09:00:57.236Z,27.40
2022-08-03T09:03:30.241Z,27.70
2022-08-03T09:06:00.556Z,27.90
2022-08-03T09:08:27.561Z,28.10
2022-08-03T09:10:54.302Z,28.10
2022-08-03T09:13:21.212Z,28.40
2022-08-03T09:16:00.949Z,28.70
2022-08-03T09:18:32.566Z,28.90
2022-08-03T09:21:32.779Z,29.10
2022-08-03T09:24:04.883Z,29.60
2022-08-03T09:26:37.881Z,29.70
2022-08-03T09:29:14.448Z,29.90
2022-08-03T09:31:46.886Z,30.30
2022-08-03T09:34:16.021Z,30.70
2022-08-03T09:36:50.442Z,30.70
2022-08-03T09:39:40.190Z,31.10
2022-08-03T09:42:14.686Z,31.60
2022-08-03T09:44:46.469Z,31.90
2022-08-03T09:47:15.152Z,32.30
2022-08-03T09:49:56.625Z,32.40
2022-08-03T09:52:49.317Z,32.80
2022-08-03T09:56:30.422Z,33.10
2022-08-03T09:58:10.134Z,32.90
2022-08-03T10:01:04.104Z,33.10
2022-08-03T10:03:34.993Z,33.60
2022-08-03T10:06:19.708Z,33.40
2022-08-03T10:08:47.054Z,33.80
2022-08-03T10:11:30.461Z,34.30
2022-08-03T10:13:58.039Z,33.90
2022-08-03T10:16:32.939Z,34.10
2022-08-03T10:18:59.918Z,33.40
2022-08-03T10:21:32.385Z,33.10
2022-08-03T10:24:02.213Z,33.00
2022-08-03T10:26:32.424Z,34.00
2022-08-03T10:29:02.815Z,33.70
2022-08-03T10:31:38.486Z,33.10
2022-08-03T10:34:27.046Z,33.30
2022-08-03T10:36:58.718Z,33.80
2022-08-03T10:39:29.270Z,33.90
2022-08-03T10:41:58.727Z,34.80
2022-08-03T10:44:33.670Z,35.40
2022-08-03T10:47:01.089Z,35.70
2022-08-03T10:49:34.557Z,35.80
2022-08-03T10:52:12.988Z,35.60
2022-08-03T10:55:09.991Z,35.00
2022-08-03T10:57:56.636Z,35.80
2022-08-03T11:00:27.886Z,36.10
2022-08-03T11:03:09.442Z,35.10
2022-08-03T11:05:49.083Z,36.20
2022-08-03T11:08:36.818Z,36.20
2022-08-03T11:11:28.505Z,35.50
2022-08-03T11:14:08.316Z,36.20
2022-08-03T11:16:46.607Z,36.00
2022-08-03T11:19:15.749Z,35.60
2022-08-03T11:21:48.445Z,35.60
2022-08-03T11:24:33.964Z,36.30
2022-08-03T11:27:18.994Z,35.70
2022-08-03T11:30:10.580Z,36.20
2022-08-03T11:32:40.255Z,36.90
2022-08-03T11:35:16.245Z,37.10
2022-08-03T11:38:03.208Z,36.90
2022-08-03T11:40:51.066Z,36.50
2022-08-03T11:43:26.733Z,36.90
2022-08-03T11:46:07.712Z,36.90
2022-08-03T11:48:43.122Z,37.20
2022-08-03T11:51:27.577Z,37.90
2022-08-03T11:54:00.267Z,38.90
2022-08-03T11:56:27.943Z,38.20
2022-08-03T11:59:18.754Z,38.10
2022-08-03T12:01:44.143Z,37.20
2022-08-03T12:04:11.658Z,37.10
2022-08-03T12:06:56.679Z,38.10
2022-08-03T12:09:23.408Z,38.30
2022-08-03T12:12:00.523Z,39.80
2022-08-03T12:14:50.296Z,39.20
2022-08-03T12:17:16.200Z,39.20
2022-08-03T12:19:43.852Z,38.70
2022-08-03T12:22:10.583Z,39.90
2022-08-03T12:24:42.467Z,40.50
2022-08-03T12:27:09.289Z,39.70
2022-08-03T12:29:36.532Z,39.40
2022-08-03T12:32:03.449Z,39.50
2022-08-03T12:34:49.505Z,39.00
2022-08-03T12:37:22.685Z,38.90
2022-08-03T12:40:02.365Z,38.40
2022-08-03T12:42:37.406Z,38.00
2022-08-03T12:45:24.682Z,38.80
2022-08-03T12:47:51.280Z,38.50
2022-08-03T12:50:29.269Z,39.30
2022-08-03T12:52:57.527Z,39.90
2022-08-03T12:55:25.574Z,40.40
2022-08-03T12:57:52.170Z,40.50
2022-08-03T13:00:28.594Z,40.10
2022-08-03T13:03:26.559Z,40.70
2022-08-03T13:05:47.189Z,39.70
2022-08-03T13:08:21.971Z,39.20
2022-08-03T13:10:48.818Z,40.10
2022-08-03T13:13:15.667Z,39.90
2022-08-03T13:15:47.742Z,39.10
2022-08-03T13:18:17.372Z,38.30
2022-08-03T13:20:44.408Z,37.10
2022-08-03T13:23:15.541Z,37.30
2022-08-03T13:25:55.758Z,37.60
2022-08-03T13:28:23.260Z,37.50
2022-08-03T13:30:49.975Z,37.00
2022-08-03T13:33:16.746Z,36.30
2022-08-03T13:35:43.380Z,35.40
2022-08-03T13:38:10.198Z,34.90
2022-08-03T13:40:41.482Z,34.10
2022-08-03T13:43:08.302Z,33.50
2022-08-03T13:45:35.146Z,33.40
2022-08-03T13:48:01.877Z,33.10
2022-08-03T13:50:28.630Z,32.80
2022-08-03T13:52:55.372Z,32.60
2022-08-03T13:55:22.367Z,32.60
2022-08-03T13:58:03.233Z,32.50
2022-08-03T14:00:34.230Z,32.60
2022-08-03T14:03:10.849Z,32.40
2022-08-03T14:05:40.139Z,32.30
2022-08-03T14:08:07.979Z,32.20
2022-08-03T14:10:45.264Z,32.30
2022-08-03T14:13:17.732Z,32.10
2022-08-03T14:15:49.972Z,32.10
2022-08-03T14:18:29.062Z,32.10
2022-08-03T14:21:05.562Z,32.00
2022-08-03T14:23:34.383Z,32.00
2022-08-03T14:26:01.141Z,32.00
2022-08-03T14:28:28.721Z,32.20
2022-08-03T14:30:56.277Z,32.20
2022-08-03T14:33:23.573Z,32.00
2022-08-03T14:35:51.634Z,32.00
2022-08-03T14:38:18.723Z,32.00
2022-08-03T14:40:46.388Z,31.90
2022-08-03T14:43:13.305Z,31.90
2022-08-03T14:45:40.793Z,31.70
2022-08-03T14:50:30.252Z,31.80
2022-08-03T14:50:55.301Z,31.70
2022-08-03T14:53:22.102Z,31.70
2022-08-03T14:55:50.618Z,31.70
2022-08-03T14:58:22.980Z,31.80
2022-08-03T15:00:51.453Z,31.80
2022-08-03T15:03:24.419Z,31.80
2022-08-03T15:05:53.112Z,31.60
2022-08-03T15:08:20.598Z,31.60
2022-08-03T15:10:47.971Z,31.80
2022-08-03T15:13:16.860Z,31.70
2022-08-03T15:15:43.796Z,31.70
2022-08-03T15:18:10.743Z,31.70
2022-08-03T15:20:44.525Z,31.80
2022-08-03T15:23:12.718Z,31.70
2022-08-03T15:26:28.905Z,31.70
2022-08-03T15:28:26.137Z,31.80
2022-08-03T15:30:53.140Z,31.70
2022-08-03T15:33:20.174Z,31.70
2022-08-03T15:35:47.567Z,31.70
2022-08-03T15:38:14.625Z,31.60
2022-08-03T15:40:41.765Z,31.60
2022-08-03T15:43:08.411Z,31.60
2022-08-03T15:45:35.321Z,31.60
2022-08-03T15:48:03.441Z,31.50
2022-08-03T15:50:30.187Z,31.50
2022-08-03T15:52:57.019Z,31.50
2022-08-03T15:55:23.763Z,31.50
2022-08-03T15:59:09.458Z,31.50
2022-08-03T16:00:37.505Z,31.40
2022-08-03T16:03:04.717Z,31.40
2022-08-03T16:05:32.073Z,31.40
2022-08-03T16:08:03.466Z,31.40
2022-08-03T16:10:30.936Z,31.30
2022-08-03T16:13:00.718Z,31.20
2022-08-03T16:15:27.512Z,31.20
2022-08-03T16:17:54.253Z,31.20
2022-08-03T16:20:28.949Z,31.30
2022-08-03T16:23:00.395Z,31.20
2022-08-03T16:25:28.296Z,31.30
2022-08-03T16:28:00.303Z,31.30
2022-08-03T16:30:34.259Z,31.30
2022-08-03T16:33:01.010Z,31.40
2022-08-03T16:35:27.781Z,31.40
2022-08-03T16:37:56.415Z,31.30
2022-08-03T16:40:24.979Z,31.30
2022-08-03T16:42:51.707Z,31.30
2022-08-03T16:45:18.342Z,31.20
2022-08-03T16:47:44.963Z,31.30
2022-08-03T16:50:19.117Z,31.20
2022-08-03T16:52:47.436Z,31.30
2022-08-03T16:55:18.278Z,31.20
2022-08-03T16:57:59.819Z,31.20
2022-08-03T17:00:34.451Z,31.20
2022-08-03T17:03:18.928Z,31.20
2022-08-03T17:05:49.714Z,31.30
2022-08-03T17:08:27.002Z,31.10
2022-08-03T17:10:55.009Z,31.10
2022-08-03T17:13:22.833Z,31.00
2022-08-03T17:15:58.067Z,30.90
2022-08-03T17:18:29.814Z,30.90
2022-08-03T17:20:58.572Z,30.90
2022-08-03T17:26:44.790Z,30.80
2022-08-03T17:29:13.369Z,30.70
2022-08-03T17:31:48.700Z,30.70
2022-08-03T17:34:17.936Z,30.70
2022-08-03T17:39:58.761Z,30.70
2022-08-03T17:42:29.320Z,30.60
2022-08-03T17:47:58.160Z,30.50
2022-08-03T17:50:34.597Z,30.40
2022-08-03T17:53:15.630Z,30.40
2022-08-03T17:56:04.904Z,30.30
2022-08-03T17:58:41.452Z,30.30
2022-08-03T18:04:29.905Z,30.10
2022-08-03T18:06:59.391Z,30.00
2022-08-03T18:12:26.982Z,29.90
2022-08-03T18:15:01.197Z,29.70
2022-08-03T18:17:55.857Z,29.60
2022-08-03T18:20:32.333Z,29.50
2022-08-03T18:23:06.010Z,29.30
2022-08-03T18:25:45.695Z,29.20
2022-08-03T18:28:23.090Z,29.00
2022-08-03T18:30:54.744Z,28.80
2022-08-03T18:34:19.023Z,28.70
2022-08-03T18:36:17.878Z,28.60
2022-08-03T18:38:47.552Z,28.40
2022-08-03T18:41:21.933Z,28.30
2022-08-03T18:44:08.087Z,28.20
2022-08-03T18:47:07.295Z,28.10
2022-08-03T18:50:13.430Z,27.90
2022-08-03T18:52:53.185Z,27.80
2022-08-03T18:55:35.560Z,27.60
2022-08-03T18:58:30.202Z,27.50
2022-08-03T19:02:00.087Z,27.40
2022-08-03T19:04:45.364Z,27.30
2022-08-03T19:07:24.254Z,27.20
2022-08-03T19:09:54.568Z,27.10
2022-08-03T19:12:39.520Z,27.10
2022-08-03T19:15:13.017Z,27.00
2022-08-03T19:17:42.621Z,26.80
2022-08-03T19:20:24.992Z,26.60
2022-08-03T19:22:52.823Z,26.60
2022-08-03T19:25:19.634Z,26.50
2022-08-03T19:27:48.113Z,26.40
2022-08-03T19:30:35.541Z,26.40
2022-08-03T19:33:11.932Z,26.20
2022-08-03T19:35:52.047Z,26.10
2022-08-03T19:38:28.516Z,26.00
2022-08-03T19:40:59.818Z,26.00
2022-08-03T19:43:53.097Z,25.90
2022-08-03T19:46:22.450Z,25.80
2022-08-03T19:48:59.328Z,25.80
2022-08-03T19:52:01.628Z,25.70
2022-08-03T19:54:29.280Z,25.70
2022-08-03T19:56:58.169Z,25.60
2022-08-03T19:59:26.460Z,25.50
2022-08-03T20:01:53.667Z,25.40
2022-08-03T20:04:21.408Z,25.40
2022-08-03T20:06:49.625Z,25.40
2022-08-03T20:09:17.229Z,25.40
2022-08-03T20:11:45.267Z,25.30
2022-08-03T20:14:13.320Z,25.20
2022-08-03T20:16:48.081Z,25.10
2022-08-03T20:19:16.715Z,25.00
2022-08-03T20:21:48.546Z,25.00
2022-08-03T20:24:23.373Z,24.90
2022-08-03T20:26:54.870Z,24.90
2022-08-03T20:30:05.330Z,24.90
2022-08-03T20:32:28.061Z,24.80
2022-08-03T20:34:54.697Z,24.80
2022-08-03T20:37:22.222Z,24.80
2022-08-03T20:39:49.577Z,24.80
2022-08-03T20:42:21.556Z,24.70
2022-08-03T20:45:04.531Z,24.70
2022-08-03T20:47:35.815Z,24.70
2022-08-03T20:50:04.124Z,24.70
2022-08-03T20:52:34.777Z,24.60
2022-08-03T20:55:12.928Z,24.50
2022-08-03T20:57:42.837Z,24.60
2022-08-03T21:00:17.831Z,24.50
2022-08-03T21:02:44.776Z,24.40
2022-08-03T21:05:11.774Z,24.30
2022-08-03T21:08:05.011Z,24.20
2022-08-03T21:10:35.790Z,24.20
2022-08-03T21:13:05.926Z,29.90
2022-08-03T21:13:27.859Z,24.10
2022-08-03T21:16:11.708Z,24.00
2022-08-03T21:18:51.246Z,24.00
2022-08-03T21:21:23.221Z,23.90
2022-08-03T21:23:54.146Z,23.90
2022-08-03T21:26:23.430Z,23.80
2022-08-03T21:28:51.963Z,23.80
2022-08-03T21:31:25.189Z,23.80
2022-08-03T21:33:58.579Z,23.80
2022-08-03T21:36:30.693Z,23.70
2022-08-03T21:38:58.758Z,23.80
2022-08-03T21:41:28.046Z,23.80
2022-08-03T21:43:54.892Z,23.80
2022-08-03T21:46:22.502Z,23.80
2022-08-03T21:48:56.591Z,23.70
2022-08-03T21:51:43.343Z,23.70
2022-08-03T21:54:13.340Z,23.60
2022-08-03T21:56:47.199Z,23.60
2022-08-03T21:59:19.270Z,23.60
2022-08-03T22:01:49.044Z,23.60
2022-08-03T22:04:51.073Z,23.60
2022-08-03T22:07:08.038Z,23.60
2022-08-03T22:09:36.268Z,23.60
2022-08-03T22:12:03.693Z,23.50
2022-08-03T22:14:33.231Z,23.50
2022-08-03T22:17:00.590Z,23.50
2022-08-03T22:19:31.380Z,23.50
2022-08-03T22:21:59.651Z,23.50
2022-08-03T22:24:30.413Z,23.50
2022-08-03T22:27:19.923Z,23.50
2022-08-03T22:29:47.531Z,23.50
2022-08-03T22:32:14.669Z,23.50
2022-08-03T22:34:45.617Z,23.50
2022-08-03T22:37:13.890Z,23.50
2022-08-03T22:39:43.087Z,23.50
2022-08-03T22:42:10.230Z,23.50
2022-08-03T22:44:37.276Z,23.50
2022-08-03T22:47:05.565Z,23.50
2022-08-03T22:49:32.827Z,23.50
2022-08-03T22:52:01.430Z,23.60
2022-08-03T22:54:28.292Z,23.60
2022-08-03T22:56:55.208Z,23.60
2022-08-03T22:59:40.935Z,23.60
2022-08-03T23:02:21.185Z,23.60
2022-08-03T23:04:57.413Z,23.60
2022-08-03T23:07:31.536Z,23.60
2022-08-03T23:09:59.729Z,23.50
2022-08-03T23:12:29.547Z,23.50
2022-08-03T23:15:01.795Z,23.40
2022-08-03T23:17:31.699Z,23.40
2022-08-03T23:20:06.344Z,23.40
2022-08-03T23:22:39.518Z,23.40
2022-08-03T23:25:10.300Z,23.40
2022-08-03T23:27:40.575Z,23.40
2022-08-03T23:30:10.149Z,23.40
2022-08-03T23:32:37.790Z,23.30
2022-08-03T23:36:29.553Z,23.40
2022-08-03T23:38:22.681Z,23.30
2022-08-03T23:40:51.329Z,23.30
2022-08-03T23:43:44.818Z,23.30
2022-08-03T23:46:07.410Z,23.30
2022-08-03T23:48:34.351Z,23.30
2022-08-03T23:51:09.710Z,23.30
2022-08-03T23:53:43.317Z,23.30
2022-08-03T23:56:19.475Z,23.20
2022-08-03T23:59:21.934Z,23.20
